createdAt,value
2023-02-16T00:00:19.947Z,5.80
2023-02-16T00:02:50.804Z,5.80
2023-02-16T00:05:26.101Z,5.80
2023-02-16T00:07:56.100Z,5.80
2023-02-16T00:10:25.770Z,5.90
2023-02-16T00:13:12.357Z,5.80
2023-02-16T00:15:42.170Z,5.80
2023-02-16T00:18:18.407Z,5.80
2023-02-16T00:20:47.586Z,5.80
2023-02-16T00:23:16.651Z,5.80
2023-02-16T00:25:45.476Z,5.90
2023-02-16T00:28:17.503Z,5.90
2023-02-16T00:30:46.974Z,5.90
2023-02-16T00:33:19.514Z,5.90
2023-02-16T00:35:48.936Z,5.80
2023-02-16T00:38:18.330Z,5.90
2023-02-16T00:40:47.413Z,5.80
2023-02-16T00:43:26.804Z,5.80
2023-02-16T00:45:56.524Z,5.80
2023-02-16T00:48:27.455Z,5.80
2023-02-16T00:51:00.911Z,5.80
2023-02-16T00:53:30.043Z,5.80
2023-02-16T00:55:59.857Z,5.80
2023-02-16T00:58:31.918Z,5.70
2023-02-16T01:01:08.511Z,5.70
2023-02-16T01:03:38.869Z,5.60
2023-02-16T01:06:37.304Z,5.60
2023-02-16T01:09:32.860Z,5.70
2023-02-16T01:12:02.411Z,5.70
2023-02-16T01:14:32.083Z,5.70
2023-02-16T01:17:01.095Z,5.60
2023-02-16T01:19:31.370Z,5.50
2023-02-16T01:22:00.065Z,5.50
2023-02-16T01:24:28.797Z,5.50
2023-02-16T01:26:57.505Z,5.60
2023-02-16T01:29:26.178Z,5.50
2023-02-16T01:31:55.149Z,5.40
2023-02-16T01:34:25.445Z,5.50
2023-02-16T01:36:55.451Z,5.60
2023-02-16T01:39:24.106Z,5.50
2023-02-16T01:42:02.516Z,5.50
2023-02-16T01:44:38.064Z,5.40
2023-02-16T01:47:13.937Z,5.50
2023-02-16T01:49:42.605Z,5.50
2023-02-16T01:52:30.059Z,5.50
2023-02-16T01:55:06.374Z,5.50
2023-02-16T01:57:40.868Z,5.40
2023-02-16T02:00:17.190Z,5.40
2023-02-16T02:02:51.600Z,5.40
2023-02-16T02:05:36.302Z,5.40
2023-02-16T02:08:18.194Z,5.40
2023-02-16T02:11:24.590Z,5.40
2023-02-16T02:13:57.422Z,5.30
2023-02-16T02:16:28.782Z,5.30
2023-02-16T02:18:58.684Z,5.30
2023-02-16T02:25:37.280Z,5.30
2023-02-16T02:28:13.758Z,5.30
2023-02-16T02:30:48.873Z,5.30
2023-02-16T02:33:42.280Z,5.20
2023-02-16T02:36:23.585Z,5.20
2023-02-16T02:39:04.668Z,5.20
2023-02-16T02:41:56.660Z,5.20
2023-02-16T02:44:30.212Z,5.20
2023-02-16T02:46:59.390Z,5.30
2023-02-16T02:49:28.364Z,5.30
2023-02-16T02:51:58.785Z,5.40
2023-02-16T02:54:48.976Z,5.50
2023-02-16T02:57:40.539Z,5.50
2023-02-16T03:00:33.175Z,5.60
2023-02-16T03:03:07.064Z,5.60
2023-02-16T03:05:38.317Z,5.70
2023-02-16T03:08:15.245Z,5.70
2023-02-16T03:13:49.439Z,5.80
2023-02-16T03:16:28.676Z,5.80
2023-02-16T03:19:15.621Z,5.90
2023-02-16T03:22:03.422Z,5.90
2023-02-16T03:24:50.924Z,5.80
2023-02-16T03:27:41.219Z,5.80
2023-02-16T03:30:11.526Z,5.80
2023-02-16T03:32:42.409Z,5.90
2023-02-16T03:35:12.915Z,5.90
2023-02-16T03:37:42.726Z,5.90
2023-02-16T03:40:29.565Z,5.90
2023-02-16T03:42:59.871Z,5.90
2023-02-16T03:45:29.298Z,5.90
2023-02-16T03:47:59.935Z,5.90
2023-02-16T03:50:29.161Z,5.90
2023-02-16T03:53:07.086Z,5.80
2023-02-16T03:55:37.154Z,5.80
2023-02-16T03:58:06.456Z,5.90
2023-02-16T04:00:37.177Z,5.80
2023-02-16T04:03:08.942Z,5.90
2023-02-16T04:05:38.728Z,5.90
2023-02-16T04:08:11.425Z,5.90
2023-02-16T04:10:40.410Z,5.90
2023-02-16T04:13:08.647Z,5.80
2023-02-16T04:15:37.651Z,5.90
2023-02-16T04:18:08.028Z,5.90
2023-02-16T04:20:37.707Z,5.90
2023-02-16T04:23:06.829Z,6.00
2023-02-16T04:25:35.794Z,6.00
2023-02-16T04:28:04.540Z,6.00
2023-02-16T04:30:33.494Z,6.00
2023-02-16T04:33:02.545Z,6.10
2023-02-16T04:35:32.669Z,6.20
2023-02-16T04:38:01.427Z,6.20
2023-02-16T04:40:31.112Z,6.20
2023-02-16T04:42:59.968Z,6.20
2023-02-16T04:45:28.755Z,6.30
2023-02-16T04:47:57.676Z,6.30
2023-02-16T04:50:26.439Z,6.30
2023-02-16T04:52:56.524Z,6.30
2023-02-16T04:55:25.709Z,6.30
2023-02-16T04:57:54.595Z,6.30
2023-02-16T05:00:23.563Z,6.40
2023-02-16T05:02:52.192Z,6.40
2023-02-16T05:05:20.962Z,6.40
2023-02-16T05:07:50.068Z,6.40
2023-02-16T05:10:20.452Z,6.50
2023-02-16T05:13:06.343Z,6.50
2023-02-16T05:15:35.252Z,6.50
2023-02-16T05:18:04.099Z,6.50
2023-02-16T05:20:46.744Z,6.50
2023-02-16T05:23:15.503Z,6.50
2023-02-16T05:25:45.918Z,6.50
2023-02-16T05:28:14.817Z,6.50
2023-02-16T05:30:43.727Z,6.50
2023-02-16T05:33:12.377Z,6.50
2023-02-16T05:35:41.693Z,6.50
2023-02-16T05:38:10.467Z,6.50
2023-02-16T05:40:39.303Z,6.50
2023-02-16T05:43:09.416Z,6.40
2023-02-16T05:45:40.344Z,6.40
2023-02-16T05:48:09.038Z,6.40
2023-02-16T05:50:37.742Z,6.40
2023-02-16T05:53:06.415Z,6.40
2023-02-16T05:55:35.285Z,6.40
2023-02-16T05:58:04.093Z,6.40
2023-02-16T06:00:36.264Z,6.40
2023-02-16T06:03:05.238Z,6.40
2023-02-16T06:05:33.807Z,6.40
2023-02-16T06:08:02.410Z,6.40
2023-02-16T06:10:31.101Z,6.40
2023-02-16T06:12:59.679Z,6.30
2023-02-16T06:15:28.417Z,6.30
2023-02-16T06:17:58.388Z,6.30
2023-02-16T06:20:27.067Z,6.40
2023-02-16T06:22:55.666Z,6.30
2023-02-16T06:25:24.273Z,6.30
2023-02-16T06:27:52.881Z,6.30
2023-02-16T06:30:22.375Z,6.30
2023-02-16T06:32:51.008Z,6.30
2023-02-16T06:35:21.231Z,6.30
2023-02-16T06:37:50.011Z,6.30
2023-02-16T06:40:19.239Z,6.40
2023-02-16T06:42:47.924Z,6.30
2023-02-16T06:45:16.608Z,6.30
2023-02-16T06:47:45.522Z,6.30
2023-02-16T06:50:15.345Z,6.30
2023-02-16T06:52:46.017Z,6.30
2023-02-16T06:55:14.728Z,6.20
2023-02-16T06:57:43.376Z,6.30
2023-02-16T07:00:13.021Z,6.20
2023-02-16T07:02:43.448Z,6.30
2023-02-16T07:05:12.112Z,6.30
2023-02-16T07:07:40.932Z,6.30
2023-02-16T07:10:11.813Z,6.30
2023-02-16T07:12:40.507Z,6.30
2023-02-16T07:15:10.716Z,6.30
2023-02-16T07:17:39.463Z,6.30
2023-02-16T07:20:09.239Z,6.30
2023-02-16T07:22:37.806Z,6.30
2023-02-16T07:25:07.000Z,6.30
2023-02-16T07:27:37.021Z,6.40
2023-02-16T07:30:06.253Z,6.40
2023-02-16T07:32:34.874Z,6.40
2023-02-16T07:35:03.550Z,6.50
2023-02-16T07:37:32.203Z,6.50
2023-02-16T07:40:00.870Z,6.50
2023-02-16T07:42:32.057Z,6.60
2023-02-16T07:45:02.227Z,6.60
2023-02-16T07:47:30.826Z,6.70
2023-02-16T07:49:59.525Z,6.70
2023-02-16T07:52:31.168Z,6.70
2023-02-16T07:55:00.464Z,6.80
2023-02-16T07:57:29.848Z,6.80
2023-02-16T07:59:58.549Z,6.90
2023-02-16T08:02:28.665Z,6.90
2023-02-16T08:04:57.353Z,6.90
2023-02-16T08:07:26.045Z,7.00
2023-02-16T08:09:55.008Z,7.00
2023-02-16T08:12:23.817Z,7.00
2023-02-16T08:14:52.577Z,7.00
2023-02-16T08:17:21.506Z,7.10
2023-02-16T08:19:52.107Z,7.10
2023-02-16T08:22:20.756Z,7.20
2023-02-16T08:24:49.401Z,7.20
2023-02-16T08:27:18.154Z,7.30
2023-02-16T08:29:46.918Z,7.30
2023-02-16T08:32:15.931Z,7.30
2023-02-16T08:34:44.532Z,7.30
2023-02-16T08:37:15.125Z,7.30
2023-02-16T08:39:43.762Z,7.30
2023-02-16T08:42:14.342Z,7.30
2023-02-16T08:44:43.435Z,7.40
2023-02-16T08:47:12.087Z,7.30
2023-02-16T08:49:40.700Z,7.30
2023-02-16T08:52:10.412Z,7.40
2023-02-16T08:54:40.908Z,7.40
2023-02-16T08:57:09.689Z,7.40
2023-02-16T08:59:38.407Z,7.50
2023-02-16T09:02:08.059Z,7.50
2023-02-16T09:04:36.850Z,7.50
2023-02-16T09:07:05.983Z,7.50
2023-02-16T09:09:34.608Z,7.50
2023-02-16T09:12:05.314Z,7.50
2023-02-16T09:14:34.028Z,7.50
2023-02-16T09:17:03.236Z,7.60
2023-02-16T09:19:31.940Z,7.60
2023-02-16T09:22:00.702Z,7.60
2023-02-16T09:24:31.413Z,7.70
2023-02-16T09:27:01.066Z,7.70
2023-02-16T09:29:31.200Z,7.80
2023-02-16T09:32:59.307Z,7.80
2023-02-16T09:35:28.320Z,7.80
2023-02-16T09:38:19.354Z,7.90
2023-02-16T09:40:48.064Z,7.90
2023-02-16T09:43:29.171Z,7.90
2023-02-16T09:46:00.091Z,7.90
2023-02-16T09:48:36.834Z,8.00
2023-02-16T09:51:08.469Z,8.00
2023-02-16T09:53:39.533Z,8.00
2023-02-16T09:56:17.565Z,8.00
2023-02-16T09:58:50.797Z,8.00
2023-02-16T10:01:32.568Z,8.00
2023-02-16T10:04:16.104Z,7.90
2023-02-16T10:06:58.539Z,7.90
2023-02-16T10:09:29.569Z,7.90
2023-02-16T10:12:04.164Z,7.90
2023-02-16T10:14:41.234Z,7.80
2023-02-16T10:18:04.431Z,7.80
2023-02-16T10:20:38.567Z,7.80
2023-02-16T10:23:47.748Z,7.80
2023-02-16T10:26:22.768Z,7.80
2023-02-16T10:28:54.971Z,7.80
2023-02-16T10:31:32.475Z,7.80
2023-02-16T10:34:23.177Z,7.80
2023-02-16T10:41:06.492Z,7.90
2023-02-16T10:43:43.556Z,7.80
2023-02-16T10:46:23.548Z,7.80
2023-02-16T10:48:54.428Z,7.80
2023-02-16T10:51:28.987Z,7.70
2023-02-16T10:54:02.035Z,7.70
2023-02-16T10:56:55.541Z,7.70
2023-02-16T10:59:26.579Z,7.60
2023-02-16T11:01:59.261Z,7.60
2023-02-16T11:04:33.182Z,7.60
2023-02-16T11:07:10.004Z,7.60
2023-02-16T11:09:39.636Z,7.60
2023-02-16T11:12:32.431Z,7.60
2023-02-16T11:15:04.345Z,7.70
2023-02-16T11:17:48.349Z,7.80
2023-02-16T11:20:29.739Z,7.80
2023-02-16T11:23:14.248Z,7.90
2023-02-16T11:25:43.516Z,8.00
2023-02-16T11:28:18.328Z,8.00
2023-02-16T11:30:48.686Z,8.10
2023-02-16T11:33:23.736Z,8.10
2023-02-16T11:35:52.600Z,8.10
2023-02-16T11:38:30.675Z,8.20
2023-02-16T11:41:36.758Z,8.20
2023-02-16T11:44:21.140Z,8.30
2023-02-16T11:46:50.068Z,8.40
2023-02-16T11:49:32.631Z,8.40
2023-02-16T11:52:01.792Z,8.50
2023-02-16T11:54:30.381Z,8.50
2023-02-16T11:57:09.506Z,8.60
2023-02-16T11:59:41.032Z,8.70
2023-02-16T12:02:39.233Z,8.80
2023-02-16T12:05:24.585Z,9.00
2023-02-16T12:08:11.644Z,9.00
2023-02-16T12:10:48.062Z,9.10
2023-02-16T12:13:23.313Z,9.10
2023-02-16T12:15:58.373Z,9.10
2023-02-16T12:18:37.088Z,9.20
2023-02-16T12:21:14.473Z,9.30
2023-02-16T12:23:52.601Z,9.30
2023-02-16T12:26:39.017Z,9.30
2023-02-16T12:29:25.420Z,9.20
2023-02-16T12:32:05.772Z,9.10
2023-02-16T12:34:48.508Z,9.10
2023-02-16T12:37:24.965Z,9.20
2023-02-16T12:40:01.283Z,9.30
2023-02-16T12:42:49.065Z,9.40
2023-02-16T12:45:22.333Z,9.50
2023-02-16T12:47:56.865Z,9.60
2023-02-16T12:50:28.482Z,9.80
2023-02-16T12:53:01.350Z,10.00
2023-02-16T12:55:35.957Z,10.20
2023-02-16T12:58:15.892Z,10.40
2023-02-16T13:00:48.783Z,10.40
2023-02-16T13:03:28.085Z,10.30
2023-02-16T13:06:08.226Z,10.60
2023-02-16T13:08:45.060Z,10.60
2023-02-16T13:11:21.653Z,10.70
2023-02-16T13:13:53.485Z,10.70
2023-02-16T13:16:30.832Z,10.80
2023-02-16T13:19:01.259Z,10.90
2023-02-16T13:21:51.188Z,10.80
2023-02-16T13:24:34.198Z,10.80
2023-02-16T13:27:16.841Z,10.90
2023-02-16T13:30:01.419Z,10.90
2023-02-16T13:32:59.011Z,10.90
2023-02-16T13:35:56.601Z,10.80
2023-02-16T13:38:57.924Z,10.80
2023-02-16T13:41:41.632Z,11.00
2023-02-16T13:44:14.701Z,10.90
2023-02-16T13:46:47.084Z,10.80
2023-02-16T13:49:32.580Z,10.70
2023-02-16T13:52:03.798Z,10.70
2023-02-16T13:54:34.718Z,10.70
2023-02-16T13:57:04.523Z,10.70
2023-02-16T14:00:02.132Z,10.70
2023-02-16T14:02:54.686Z,10.70
2023-02-16T14:05:46.326Z,10.80
2023-02-16T14:08:24.847Z,10.80
2023-02-16T14:11:08.689Z,10.80
2023-02-16T14:13:51.692Z,10.80
2023-02-16T14:16:41.496Z,10.80
2023-02-16T14:19:24.021Z,10.90
2023-02-16T14:21:53.158Z,11.00
2023-02-16T14:24:33.876Z,11.00
2023-02-16T14:27:06.074Z,11.10
2023-02-16T14:29:38.270Z,11.00
2023-02-16T14:32:21.478Z,10.90
2023-02-16T14:34:55.649Z,10.70
2023-02-16T14:37:38.399Z,10.70
2023-02-16T14:40:20.372Z,10.60
2023-02-16T14:43:04.928Z,10.60
2023-02-16T14:46:09.695Z,10.60
2023-02-16T14:49:11.576Z,10.60
2023-02-16T14:51:57.099Z,10.60
2023-02-16T14:54:50.891Z,10.70
2023-02-16T14:57:25.492Z,10.80
2023-02-16T14:59:59.713Z,10.80
2023-02-16T15:02:31.082Z,10.70
2023-02-16T15:05:00.079Z,10.70
2023-02-16T15:07:29.929Z,10.60
2023-02-16T15:09:59.893Z,10.70
2023-02-16T15:12:33.492Z,10.70
2023-02-16T15:15:04.575Z,10.60
2023-02-16T15:17:37.089Z,10.60
2023-02-16T15:20:11.396Z,10.60
2023-02-16T15:22:44.466Z,10.60
2023-02-16T15:25:24.846Z,10.60
2023-02-16T15:28:00.542Z,10.60
2023-02-16T15:30:31.320Z,10.60
2023-02-16T15:33:02.860Z,10.60
2023-02-16T15:35:36.901Z,10.60
2023-02-16T15:38:09.484Z,10.60
2023-02-16T15:40:39.075Z,10.50
2023-02-16T15:43:19.822Z,10.50
2023-02-16T15:45:53.439Z,10.50
2023-02-16T15:48:30.971Z,10.40
2023-02-16T15:51:07.001Z,10.40
2023-02-16T15:53:42.572Z,10.40
2023-02-16T15:56:29.591Z,10.30
2023-02-16T15:59:02.149Z,10.30
2023-02-16T16:01:36.660Z,10.20
2023-02-16T16:04:09.360Z,10.30
2023-02-16T16:06:41.065Z,10.20
2023-02-16T16:09:21.811Z,10.30
2023-02-16T16:11:51.846Z,10.30
2023-02-16T16:14:23.739Z,10.20
2023-02-16T16:16:53.127Z,10.20
2023-02-16T16:19:24.782Z,10.20
2023-02-16T16:21:55.666Z,10.10
2023-02-16T16:24:38.277Z,10.10
2023-02-16T16:27:10.600Z,10.00
2023-02-16T16:29:44.464Z,10.00
2023-02-16T16:32:20.996Z,9.90
2023-02-16T16:34:52.124Z,9.90
2023-02-16T16:37:27.578Z,9.90
2023-02-16T16:40:04.412Z,9.80
2023-02-16T16:42:39.352Z,9.80
2023-02-16T16:45:35.692Z,9.70
2023-02-16T16:48:10.512Z,9.70
2023-02-16T16:50:40.483Z,9.60
2023-02-16T16:53:46.418Z,9.60
2023-02-16T16:56:15.876Z,9.50
2023-02-16T16:58:44.811Z,9.50
2023-02-16T17:01:16.007Z,9.50
2023-02-16T17:03:45.032Z,9.40
2023-02-16T17:06:15.226Z,9.40
2023-02-16T17:08:43.848Z,9.40
2023-02-16T17:11:24.824Z,9.30
2023-02-16T17:13:54.984Z,9.30
2023-02-16T17:16:29.450Z,9.30
2023-02-16T17:18:58.193Z,9.30
2023-02-16T17:21:26.779Z,9.30
2023-02-16T17:23:55.354Z,9.30
2023-02-16T17:26:24.425Z,9.20
2023-02-16T17:28:53.018Z,9.20
2023-02-16T17:31:21.835Z,9.30
2023-02-16T17:33:52.328Z,9.20
2023-02-16T17:36:22.413Z,9.20
2023-02-16T17:38:51.145Z,9.30
2023-02-16T17:41:22.543Z,9.30
2023-02-16T17:43:51.591Z,9.30
2023-02-16T17:46:21.611Z,9.30
2023-02-16T17:48:53.886Z,9.30
2023-02-16T17:51:24.292Z,9.30
2023-02-16T17:53:53.060Z,9.30
2023-02-16T17:56:23.682Z,9.30
2023-02-16T17:58:52.329Z,9.40
2023-02-16T18:01:22.085Z,9.40
2023-02-16T18:03:53.113Z,9.40
2023-02-16T18:06:26.324Z,9.40
2023-02-16T18:08:56.585Z,9.40
2023-02-16T18:11:25.656Z,9.50
2023-02-16T18:13:54.450Z,9.50
2023-02-16T18:16:28.303Z,9.50
2023-02-16T18:18:58.374Z,9.50
2023-02-16T18:21:27.086Z,9.50
2023-02-16T18:23:55.820Z,9.50
2023-02-16T18:26:24.663Z,9.60
2023-02-16T18:28:53.347Z,9.50
2023-02-16T18:31:22.157Z,9.50
2023-02-16T18:33:50.845Z,9.50
2023-02-16T18:36:20.868Z,9.50
2023-02-16T18:38:49.590Z,9.50
2023-02-16T18:41:18.452Z,9.50
2023-02-16T18:43:47.116Z,9.50
2023-02-16T18:46:15.762Z,9.50
2023-02-16T18:48:44.398Z,9.50
2023-02-16T18:51:13.749Z,9.50
2023-02-16T18:53:46.147Z,9.50
2023-02-16T18:56:14.763Z,9.50
2023-02-16T18:58:43.746Z,9.50
2023-02-16T19:01:14.306Z,9.50
2023-02-16T19:03:43.387Z,9.50
2023-02-16T19:06:12.253Z,9.50
2023-02-16T19:08:40.980Z,9.50
2023-02-16T19:11:11.095Z,9.50
2023-02-16T19:13:42.985Z,9.50
2023-02-16T19:16:12.701Z,9.50
2023-02-16T19:18:41.350Z,9.50
2023-02-16T19:21:11.903Z,9.50
2023-02-16T19:23:40.987Z,9.50
2023-02-16T19:26:13.205Z,9.50
2023-02-16T19:28:42.108Z,9.50
2023-02-16T19:31:17.940Z,9.50
2023-02-16T19:33:46.738Z,9.50
2023-02-16T19:36:16.599Z,9.50
2023-02-16T19:38:45.625Z,9.50
2023-02-16T19:41:17.202Z,9.50
2023-02-16T19:43:46.766Z,9.50
2023-02-16T19:46:16.321Z,9.40
2023-02-16T19:48:45.983Z,9.50
2023-02-16T19:51:15.506Z,9.50
2023-02-16T19:53:44.875Z,9.50
2023-02-16T19:56:17.408Z,9.50
2023-02-16T19:58:46.440Z,9.50
2023-02-16T20:01:17.601Z,9.50
2023-02-16T20:03:46.623Z,9.50
2023-02-16T20:06:17.158Z,9.50
2023-02-16T20:08:46.654Z,9.50
2023-02-16T20:11:18.388Z,9.60
2023-02-16T20:13:47.541Z,9.60
2023-02-16T20:16:16.868Z,9.50
2023-02-16T20:18:45.891Z,9.50
2023-02-16T20:21:16.858Z,9.60
2023-02-16T20:23:46.612Z,9.60
2023-02-16T20:26:19.148Z,9.60
2023-02-16T20:28:48.906Z,9.60
2023-02-16T20:31:21.913Z,9.60
2023-02-16T20:33:51.179Z,9.60
2023-02-16T20:36:20.572Z,9.60
2023-02-16T20:38:50.353Z,9.60
2023-02-16T20:41:21.567Z,9.60
2023-02-16T20:43:50.556Z,9.60
2023-02-16T20:46:19.870Z,9.60
2023-02-16T20:48:51.929Z,9.60
2023-02-16T20:51:21.396Z,9.60
2023-02-16T20:53:50.672Z,9.60
2023-02-16T20:56:23.092Z,9.60
2023-02-16T20:58:53.348Z,9.60
2023-02-16T21:01:24.629Z,9.60
2023-02-16T21:03:55.369Z,9.60
2023-02-16T21:06:25.743Z,9.60
2023-02-16T21:08:54.439Z,9.60
2023-02-16T21:11:25.531Z,9.60
2023-02-16T21:13:54.725Z,9.60
2023-02-16T21:16:23.836Z,9.60
2023-02-16T21:18:52.895Z,9.60
2023-02-16T21:21:24.887Z,9.60
2023-02-16T21:23:55.288Z,9.60
2023-02-16T21:26:26.977Z,9.60
2023-02-16T21:28:55.792Z,9.70
2023-02-16T21:31:26.146Z,9.70
2023-02-16T21:33:55.478Z,9.70
2023-02-16T21:36:30.481Z,9.80
2023-02-16T21:38:59.247Z,9.80
2023-02-16T21:41:29.361Z,9.80
2023-02-16T21:44:01.354Z,9.80
2023-02-16T21:46:36.972Z,9.80
2023-02-16T21:49:05.762Z,9.80
2023-02-16T21:51:36.470Z,9.90
2023-02-16T21:54:07.560Z,9.90
2023-02-16T21:56:39.499Z,9.90
2023-02-16T21:59:10.597Z,9.90
2023-02-16T22:01:43.168Z,9.90
2023-02-16T22:04:13.300Z,9.90
2023-02-16T22:06:43.877Z,9.90
2023-02-16T22:09:15.480Z,9.90
2023-02-16T22:11:45.863Z,9.90
2023-02-16T22:14:14.686Z,9.90
2023-02-16T22:16:46.008Z,9.90
2023-02-16T22:19:16.633Z,9.90
2023-02-16T22:21:46.495Z,10.00
2023-02-16T22:24:17.062Z,10.00
2023-02-16T22:26:48.742Z,10.00
2023-02-16T22:29:19.730Z,10.00
2023-02-16T22:31:50.145Z,10.00
2023-02-16T22:34:21.932Z,10.00
2023-02-16T22:36:50.960Z,10.00
2023-02-16T22:39:20.191Z,10.00
2023-02-16T22:41:52.334Z,10.00
2023-02-16T22:44:21.038Z,10.00
2023-02-16T22:46:50.029Z,10.00
2023-02-16T22:49:18.745Z,10.00
2023-02-16T22:51:47.589Z,10.00
2023-02-16T22:54:16.351Z,10.00
2023-02-16T22:56:45.094Z,10.00
2023-02-16T22:59:15.244Z,10.00
2023-02-16T23:01:44.074Z,10.00
2023-02-16T23:04:15.329Z,10.00
2023-02-16T23:06:45.057Z,10.00
2023-02-16T23:09:17.438Z,10.00
2023-02-16T23:11:46.295Z,10.00
2023-02-16T23:14:19.605Z,9.90
2023-02-16T23:16:51.223Z,10.00
2023-02-16T23:19:22.611Z,9.90
2023-02-16T23:21:51.339Z,10.00
2023-02-16T23:24:23.020Z,9.90
2023-02-16T23:26:51.709Z,9.90
2023-02-16T23:29:24.782Z,9.90
2023-02-16T23:31:54.132Z,9.90
2023-02-16T23:34:22.874Z,9.90
2023-02-16T23:36:51.598Z,9.90
2023-02-16T23:39:20.454Z,9.90
2023-02-16T23:41:49.092Z,9.90
2023-02-16T23:44:17.682Z,9.90
2023-02-16T23:46:47.740Z,9.90
2023-02-16T23:49:16.451Z,9.90
2023-02-16T23:51:45.114Z,9.90
2023-02-16T23:54:13.686Z,9.90
2023-02-16T23:56:42.371Z,9.90
2023-02-16T23:59:11.023Z,9.90
